Time;durP1;ratioP1;P1;durP2;ratioP2;P2;SDS_P1;SDS_P2;PMS_P1;PMS_P2;Temp;Humidity;BMP_temperature;BMP_pressure;BME280_temperature;BME280_humidity;BME280_pressure;Samples;Min_cycle;Max_cycle;Signal;HPM_P1;HPM_P2
2022/09/19 00:01:45;;;;;;;1.50;0.40;;;;;;;12.94;100.00;99124.90;1703400;84;21006;-56
2022/09/19 00:04:19;;;;;;;1.53;0.50;;;;;;;12.68;100.00;99143.09;1721841;83;22088;-62
2022/09/19 00:06:48;;;;;;;4.17;0.60;;;;;;;12.68;100.00;99143.09;1704026;84;21576;-56
2022/09/19 00:09:17;;;;;;;1.70;0.50;;;;;;;12.49;100.00;99141.05;1696658;82;21651;-56
2022/09/19 00:11:47;;;;;;;2.50;0.70;;;;;;;12.49;100.00;99141.05;1678173;83;20924;-56
2022/09/19 00:14:17;;;;;;;2.40;0.77;;;;;;;12.38;100.00;99143.39;1696238;82;22438;-58
2022/09/19 00:16:45;;;;;;;1.23;0.47;;;;;;;12.29;100.00;99153.88;1678336;84;21657;-56
2022/09/19 00:19:15;;;;;;;2.07;0.50;;;;;;;12.15;100.00;99149.84;1696704;84;22004;-55
2022/09/19 00:21:45;;;;;;;3.40;0.35;;;;;;;12.11;100.00;99152.09;1678720;85;21731;-56
2022/09/19 00:27:04;;;;;;;1.03;0.50;;;;;;;12.08;100.00;99150.42;1678297;85;21027;-58
2022/09/19 00:29:33;;;;;;;0.90;0.40;;;;;;;12.00;100.00;99152.03;1696698;84;21790;-56
2022/09/19 00:32:01;;;;;;;1.80;0.43;;;;;;;12.01;100.00;99158.84;1704242;84;21721;-57
2022/09/19 00:34:30;;;;;;;2.17;0.50;;;;;;;11.99;100.00;99156.97;1696363;83;22198;-56
2022/09/19 00:36:57;;;;;;;3.40;0.77;;;;;;;11.91;100.00;99157.55;1677860;83;22035;-57
2022/09/19 00:39:24;;;;;;;4.30;0.67;;;;;;;11.86;100.00;99167.86;1696587;84;22112;-56
2022/09/19 00:41:52;;;;;;;1.27;0.50;;;;;;;11.81;100.00;99175.50;1678674;85;21755;-58
2022/09/19 00:44:30;;;;;;;1.00;0.40;;;;;;;11.75;100.00;99181.61;1695890;82;21607;-65
2022/09/19 00:47:11;;;;;;;2.70;0.60;;;;;;;11.73;100.00;99181.02;1703990;83;22087;-55
2022/09/19 00:49:41;;;;;;;1.72;0.60;;;;;;;11.68;100.00;99191.31;1678577;85;21548;-57
2022/09/19 00:52:16;;;;;;;1.60;0.50;;;;;;;11.66;100.00;99201.16;1696217;84;21065;-60
2022/09/19 00:54:44;;;;;;;3.73;0.53;;;;;;;11.58;100.00;99200.14;1703671;84;22452;-57
2022/09/19 00:57:14;;;;;;;1.30;0.50;;;;;;;11.58;100.00;99200.14;1696162;82;21734;-56
2022/09/19 00:59:44;;;;;;;2.40;0.83;;;;;;;11.53;100.00;99206.02;1650119;85;21886;-64
2022/09/19 01:02:11;;;;;;;2.47;0.57;;;;;;;11.49;100.00;99210.06;1696259;84;21401;-59
2022/09/19 01:04:41;;;;;;;2.33;0.57;;;;;;;11.44;100.00;99212.02;1680616;84;21337;-56
2022/09/19 01:07:42;;;;;;;1.87;0.60;;;;;;;11.44;100.00;99219.84;1724690;82;21999;-57
2022/09/19 01:10:44;;;;;;;1.97;0.60;;;;;;;11.43;100.00;99224.75;1724513;81;21480;-57
2022/09/19 01:13:38;;;;;;;3.52;0.60;;;;;;;11.34;100.00;99233.87;1704064;84;21411;-65
2022/09/19 01:16:20;;;;;;;2.77;1.17;;;;;;;11.25;100.00;99233.84;1724670;83;21938;-59
2022/09/19 01:19:04;;;;;;;3.77;0.40;;;;;;;11.25;100.00;99233.84;1679452;84;21528;-59
2022/09/19 01:21:46;;;;;;;4.00;0.60;;;;;;;11.25;100.00;99235.16;1724418;83;21318;-59
2022/09/19 01:24:40;;;;;;;6.63;0.53;;;;;;;11.19;100.00;99232.08;1724540;83;21251;-67
2022/09/19 01:28:03;;;;;;;3.43;0.37;;;;;;;11.11;100.00;99234.95;1704236;84;21129;-58
2022/09/19 01:30:31;;;;;;;2.60;0.50;;;;;;;11.01;100.00;99234.61;1724837;81;21240;-60
2022/09/19 01:33:18;;;;;;;1.27;0.30;;;;;;;11.01;100.00;99234.61;1725290;83;21360;-62
2022/09/19 01:35:42;;;;;;;2.83;0.40;;;;;;;10.77;100.00;99243.47;1703144;82;21866;-58
2022/09/19 01:38:13;;;;;;;5.43;0.70;;;;;;;10.77;100.00;99243.47;1698677;83;21372;-59
2022/09/19 01:40:40;;;;;;;1.23;0.40;;;;;;;10.83;100.00;99245.23;1724907;83;21373;-60
2022/09/19 01:43:13;;;;;;;1.60;0.50;;;;;;;10.79;100.00;99245.35;1677594;84;22315;-60
2022/09/19 01:45:41;;;;;;;1.40;0.50;;;;;;;10.77;100.00;99252.59;1697858;83;22333;-58
2022/09/19 01:48:28;;;;;;;2.40;0.50;;;;;;;10.74;100.00;99262.13;1704183;84;21294;-58
2022/09/19 01:51:19;;;;;;;1.67;0.40;;;;;;;10.73;100.00;99268.87;1724423;82;22258;-56
2022/09/19 01:54:11;;;;;;;1.27;0.40;;;;;;;10.67;100.00;99272.58;1724426;81;21341;-58
2022/09/19 01:56:51;;;;;;;2.93;0.40;;;;;;;10.61;100.00;99276.03;1716787;83;21877;-57
2022/09/19 01:59:48;;;;;;;2.00;0.30;;;;;;;10.59;100.00;99274.12;1703664;84;21237;-59
2022/09/19 02:02:47;;;;;;;1.40;0.63;;;;;;;10.52;100.00;99282.97;1697931;83;21315;-60
2022/09/19 02:06:00;;;;;;;3.20;0.77;;;;;;;10.45;100.00;99285.12;1702349;84;21386;-59
2022/09/19 02:09:03;;;;;;;0.60;0.20;;;;;;;10.39;100.00;99287.23;1697202;84;21255;-57
2022/09/19 02:11:42;;;;;;;1.30;0.30;;;;;;;10.37;100.00;99295.73;1695134;84;21255;-58
2022/09/19 02:14:17;;;;;;;0.97;0.27;;;;;;;10.34;100.00;99312.28;1697181;84;21613;-57
2022/09/19 02:16:51;;;;;;;1.93;0.20;;;;;;;10.33;100.00;99308.08;1696931;84;21744;-57
2022/09/19 02:19:29;;;;;;;0.77;0.20;;;;;;;10.32;100.00;99311.20;1697068;84;21060;-64
2022/09/19 02:21:59;;;;;;;1.50;0.30;;;;;;;10.31;100.00;99308.30;1697514;84;21313;-57
2022/09/19 02:24:30;;;;;;;3.20;0.20;;;;;;;10.29;100.00;99312.90;1697199;84;21282;-56
2022/09/19 02:27:03;;;;;;;0.95;0.20;;;;;;;10.29;100.00;99317.31;1696708;84;21186;-58
2022/09/19 02:29:32;;;;;;;0.40;0.10;;;;;;;10.27;100.00;99320.64;1697243;84;22045;-57
2022/09/19 02:32:02;;;;;;;3.00;0.40;;;;;;;10.29;100.00;99322.02;1696794;84;21186;-56
2022/09/19 02:34:31;;;;;;;1.30;0.30;;;;;;;10.33;100.00;99328.41;1670660;84;21269;-63
2022/09/19 02:37:21;;;;;;;0.77;0.27;;;;;;;10.30;100.00;99327.52;1670206;84;22112;-62
2022/09/19 02:40:10;;;;;;;0.37;0.20;;;;;;;10.27;100.00;99329.75;1696560;84;21218;-56
2022/09/19 02:43:20;;;;;;;4.17;0.30;;;;;;;10.24;100.00;99338.73;1696341;84;22050;-56
2022/09/19 02:45:51;;;;;;;1.20;0.30;;;;;;;10.19;100.00;99334.61;1696202;84;21254;-58
2022/09/19 02:48:31;;;;;;;;;;;;;;;10.11;100.00;99340.04;1699750;84;21684;-56
2022/09/19 02:51:12;;;;;;;0.90;0.20;;;;;;;10.02;100.00;99342.56;1697541;84;22095;-57
2022/09/19 02:53:47;;;;;;;2.05;0.30;;;;;;;9.97;100.00;99349.18;1696757;84;21301;-57
2022/09/19 02:56:16;;;;;;;0.70;0.20;;;;;;;9.91;100.00;99351.27;1697192;84;21050;-57
2022/09/19 02:58:49;;;;;;;2.70;0.40;;;;;;;9.86;100.00;99357.59;1697499;84;21224;-56
2022/09/19 03:01:25;;;;;;;1.73;0.20;;;;;;;9.84;100.00;99358.78;1696371;84;21672;-58
2022/09/19 03:04:14;;;;;;;0.83;0.30;;;;;;;9.86;100.00;99362.00;1696890;84;21674;-57
2022/09/19 03:07:13;;;;;;;1.23;0.30;;;;;;;9.81;100.00;99358.70;1695125;83;21231;-57
2022/09/19 03:09:48;;;;;;;1.83;0.20;;;;;;;9.83;100.00;99356.69;1693532;84;21558;-56
2022/09/19 03:12:21;;;;;;;0.97;0.30;;;;;;;9.82;100.00;99366.00;1700065;84;21299;-57
2022/09/19 03:14:55;;;;;;;1.93;0.40;;;;;;;9.82;100.00;99367.30;1679561;85;21317;-55
2022/09/19 03:17:18;;;;;;;0.50;0.20;;;;;;;9.79;100.00;99369.00;1670600;84;21146;-56
2022/09/19 03:19:47;;;;;;;2.30;0.53;;;;;;;9.78;100.00;99380.42;1680697;85;22133;-57
2022/09/19 03:22:15;;;;;;;2.30;0.30;;;;;;;9.78;100.00;99383.82;1671244;84;21547;-56
2022/09/19 03:24:42;;;;;;;0.63;0.20;;;;;;;9.77;100.00;99386.09;1680213;85;21322;-56
2022/09/19 03:27:10;;;;;;;1.73;0.50;;;;;;;9.77;100.00;99390.00;1698279;84;21701;-55
2022/09/19 03:29:38;;;;;;;1.17;0.20;;;;;;;9.73;100.00;99393.50;1680457;85;21304;-56
2022/09/19 03:32:06;;;;;;;0.97;0.50;;;;;;;9.72;100.00;99397.61;1697638;84;21276;-57
2022/09/19 03:34:33;;;;;;;1.13;0.40;;;;;;;9.74;100.00;99403.44;1681032;85;21478;-57
2022/09/19 03:37:03;;;;;;;0.63;0.23;;;;;;;9.81;100.00;99406.85;1697914;84;21190;-56
2022/09/19 03:39:30;;;;;;;2.13;0.20;;;;;;;10.26;100.00;99406.27;1680872;85;21365;-55
2022/09/19 03:41:59;;;;;;;0.77;0.27;;;;;;;11.12;100.00;99408.68;1698001;84;21773;-59
2022/09/19 03:44:28;;;;;;;3.83;0.40;;;;;;;12.08;100.00;99414.25;1700940;84;22091;-57
2022/09/19 03:46:57;;;;;;;1.43;0.43;;;;;;;13.01;100.00;99414.66;1680015;85;21423;-60
2022/09/19 03:49:25;;;;;;;1.30;0.50;;;;;;;13.90;100.00;99412.28;1698405;84;21745;-56
2022/09/19 03:51:52;;;;;;;1.20;0.33;;;;;;;14.75;100.00;99415.30;1680931;85;21501;-59
2022/09/19 03:54:20;;;;;;;1.23;0.27;;;;;;;15.47;100.00;99415.38;1698359;84;21182;-56
2022/09/19 03:56:47;;;;;;;0.93;0.30;;;;;;;16.08;100.00;99419.57;1680924;84;21035;-56
2022/09/19 03:59:14;;;;;;;0.87;0.30;;;;;;;16.78;100.00;99425.58;1697977;84;20993;-57
2022/09/19 04:01:43;;;;;;;3.10;0.43;;;;;;;17.42;100.00;99428.95;1681009;85;21138;-56
2022/09/19 04:04:11;;;;;;;1.90;0.40;;;;;;;17.97;100.00;99433.20;1697963;84;21060;-56
2022/09/19 04:06:41;;;;;;;1.82;0.40;;;;;;;18.40;100.00;99432.70;1701113;82;21147;-57
2022/09/19 04:09:10;;;;;;;1.30;0.50;;;;;;;18.90;100.00;99438.02;1680089;85;20956;-57
2022/09/19 04:11:41;;;;;;;1.23;0.70;;;;;;;19.44;100.00;99442.97;1698692;84;22008;-56
2022/09/19 04:14:07;;;;;;;1.30;0.50;;;;;;;19.79;97.18;99443.58;1680015;85;21014;-58
2022/09/19 04:16:34;;;;;;;1.50;0.53;;;;;;;20.11;87.11;99452.56;1698503;84;21464;-56
2022/09/19 04:19:02;;;;;;;0.80;0.50;;;;;;;20.37;79.23;99456.52;1680450;84;22046;-57
2022/09/19 04:21:41;;;;;;;1.37;0.50;;;;;;;20.71;73.83;99463.36;1696352;84;21519;-59
2022/09/19 04:24:29;;;;;;;0.60;0.40;;;;;;;20.99;67.90;99467.80;1697855;84;21097;-59
2022/09/19 04:27:08;;;;;;;2.60;0.50;;;;;;;21.26;61.67;99470.07;1696264;84;21445;-58
2022/09/19 04:29:35;;;;;;;0.77;0.40;;;;;;;21.30;58.91;99480.39;1680532;85;21026;-66
2022/09/19 04:32:03;;;;;;;1.07;0.60;;;;;;;21.27;58.00;99476.95;1698238;84;21727;-59
2022/09/19 04:34:33;;;;;;;1.20;0.63;;;;;;;21.44;57.98;99478.76;1680112;84;20955;-59
2022/09/19 04:37:02;;;;;;;1.45;0.70;;;;;;;21.68;55.98;99488.16;1698834;84;21081;-57
2022/09/19 04:39:30;;;;;;;0.73;0.40;;;;;;;21.95;54.49;99494.34;1680809;85;21019;-58
2022/09/19 04:41:58;;;;;;;0.60;0.40;;;;;;;22.17;51.76;99491.83;1698083;84;21061;-58
2022/09/19 04:44:28;;;;;;;1.23;0.70;;;;;;;22.20;51.83;99487.27;1680385;85;21277;-59
2022/09/19 04:47:10;;;;;;;2.27;0.70;;;;;;;22.55;51.94;99488.28;1696879;84;21006;-57
2022/09/19 04:49:40;;;;;;;1.05;0.47;;;;;;;23.08;48.70;99485.37;1680628;85;21027;-59
2022/09/19 04:52:15;;;;;;;1.82;0.68;;;;;;;23.18;47.05;99493.20;1698673;84;21506;-66
2022/09/19 04:54:42;;;;;;;1.27;0.70;;;;;;;23.08;46.64;99492.80;1701005;83;22128;-58
2022/09/19 04:57:11;;;;;;;1.37;0.60;;;;;;;23.02;47.44;99502.69;1698538;84;21304;-58
2022/09/19 04:59:40;;;;;;;0.70;0.50;;;;;;;23.23;46.32;99503.25;1680469;85;20968;-59
2022/09/19 05:02:08;;;;;;;4.75;0.57;;;;;;;23.12;45.75;99507.11;1698735;84;21919;-64
2022/09/19 05:04:35;;;;;;;0.90;0.50;;;;;;;22.70;45.85;99507.81;1680433;85;21058;-57
2022/09/19 05:07:03;;;;;;;0.60;0.40;;;;;;;22.00;47.28;99516.06;1708159;82;20970;-57
2022/09/19 05:09:32;;;;;;;0.87;0.50;;;;;;;21.18;49.46;99518.34;1703837;84;21259;-56
2022/09/19 05:12:08;;;;;;;1.37;0.40;;;;;;;20.44;52.42;99512.63;1724289;83;20970;-56
2022/09/19 05:14:37;;;;;;;1.30;0.65;;;;;;;19.85;56.24;99519.73;1703909;84;20987;-56
2022/09/19 05:17:05;;;;;;;1.07;0.50;;;;;;;19.30;64.04;99528.54;1725183;83;21792;-56
2022/09/19 05:19:32;;;;;;;0.70;0.40;;;;;;;18.93;71.48;99529.94;1724549;81;21030;-58
2022/09/19 05:21:59;;;;;;;1.87;0.40;;;;;;;18.64;76.48;99539.51;1703663;84;22311;-57
2022/09/19 05:24:29;;;;;;;0.60;0.40;;;;;;;18.28;80.63;99548.19;1724301;83;21094;-65
2022/09/19 05:26:56;;;;;;;1.00;0.50;;;;;;;17.98;87.89;99560.03;1703950;84;21042;-57
2022/09/19 05:29:23;;;;;;;0.77;0.40;;;;;;;17.82;94.69;99556.97;1724708;83;20929;-56
2022/09/19 05:32:02;;;;;;;0.97;0.40;;;;;;;17.73;97.99;99567.93;1723730;82;20982;-57
2022/09/19 05:34:41;;;;;;;1.90;0.50;;;;;;;17.65;100.00;99575.45;1703450;84;21149;-56
2022/09/19 05:37:10;;;;;;;0.53;0.30;;;;;;;17.59;100.00;99573.29;1722782;82;20973;-56
2022/09/19 05:39:39;;;;;;;0.90;0.30;;;;;;;17.53;100.00;99586.12;1715818;83;20997;-56
2022/09/19 05:42:24;;;;;;;1.30;0.40;;;;;;;17.50;100.00;99583.97;1724802;83;21954;-56
2022/09/19 05:44:54;;;;;;;2.23;0.33;;;;;;;17.35;100.00;99581.96;1703878;82;21030;-57
2022/09/19 05:47:22;;;;;;;2.10;0.67;;;;;;;17.19;100.00;99586.20;1723940;81;49578;-58
2022/09/19 05:49:51;;;;;;;1.03;0.43;;;;;;;17.16;100.00;99591.98;1723947;81;21630;-59
2022/09/19 05:55:08;;;;;;;0.90;0.50;;;;;;;17.19;100.00;99598.58;1724312;83;21516;-58
2022/09/19 05:57:56;;;;;;;1.93;0.63;;;;;;;17.33;100.00;99604.31;1701218;84;21349;-56
2022/09/19 06:00:25;;;;;;;0.80;0.40;;;;;;;17.54;100.00;99602.72;1724575;83;21298;-56
2022/09/19 06:02:58;;;;;;;1.17;0.40;;;;;;;17.78;100.00;99611.23;1724205;83;20995;-60
2022/09/19 06:05:25;;;;;;;1.30;0.47;;;;;;;18.07;100.00;99611.80;1703533;82;21081;-64
2022/09/19 06:07:55;;;;;;;1.67;0.67;;;;;;;18.35;100.00;99613.42;1724195;81;21524;-56
2022/09/19 06:10:23;;;;;;;1.40;0.53;;;;;;;18.65;100.00;99611.05;1698405;82;21536;-56
2022/09/19 06:12:53;;;;;;;1.83;0.40;;;;;;;19.27;91.73;99607.53;1724408;83;21882;-57
2022/09/19 06:15:23;;;;;;;0.87;0.40;;;;;;;19.79;79.78;99620.76;1746755;81;20915;-57
2022/09/19 06:17:55;;;;;;;1.23;0.80;;;;;;;20.12;73.51;99624.84;1724385;81;20994;-57
2022/09/19 06:20:24;;;;;;;1.10;0.60;;;;;;;20.45;70.72;99628.05;1719443;81;21050;-66
2022/09/19 06:23:03;;;;;;;1.37;0.60;;;;;;;20.81;66.63;99624.13;1711967;81;20978;-66
2022/09/19 06:25:30;;;;;;;0.93;0.60;;;;;;;21.16;61.99;99624.61;1724018;82;21433;-58
2022/09/19 06:27:59;;;;;;;1.07;0.50;;;;;;;21.47;58.49;99626.68;1724665;83;21453;-57
2022/09/19 06:30:26;;;;;;;1.40;0.80;;;;;;;21.73;57.21;99637.20;1724366;81;21531;-58
2022/09/19 06:32:55;;;;;;;1.90;0.63;;;;;;;22.08;56.17;99641.00;1724947;81;20970;-58
2022/09/19 06:35:31;;;;;;;1.20;0.73;;;;;;;22.37;52.81;99645.66;1725834;81;21070;-58
2022/09/19 06:38:00;;;;;;;2.45;0.80;;;;;;;22.61;50.47;99640.97;1724897;81;21455;-62
2022/09/19 06:40:27;;;;;;;1.12;0.60;;;;;;;22.80;50.12;99649.84;1724443;81;21041;-57
2022/09/19 06:43:08;;;;;;;1.35;0.70;;;;;;;23.08;48.93;99655.50;1725378;81;20950;-60
2022/09/19 06:45:52;;;;;;;1.93;0.83;;;;;;;23.33;47.95;99653.11;1724062;82;21633;-58
2022/09/19 06:48:39;;;;;;;1.42;0.82;;;;;;;23.60;46.61;99646.71;1725212;81;20942;-64
2022/09/19 06:51:13;;;;;;;1.20;0.70;;;;;;;23.75;45.71;99660.38;1727241;81;22025;-66
2022/09/19 06:53:40;;;;;;;1.65;0.80;;;;;;;23.81;45.15;99656.59;1724589;83;20983;-57
2022/09/19 06:56:09;;;;;;;1.65;0.90;;;;;;;23.79;45.42;99669.41;1724426;83;21817;-57
2022/09/19 06:58:37;;;;;;;1.60;0.90;;;;;;;23.96;45.36;99659.05;1724679;82;21506;-57
2022/09/19 07:01:04;;;;;;;1.60;0.90;;;;;;;24.15;44.34;99652.95;1724565;82;20944;-59
2022/09/19 07:03:36;;;;;;;1.98;0.95;;;;;;;24.25;44.03;99658.15;1724100;81;21057;-61
2022/09/19 07:06:05;;;;;;;1.50;0.72;;;;;;;24.40;43.56;99656.63;1724286;83;21413;-58
2022/09/19 07:08:34;;;;;;;2.02;0.90;;;;;;;24.52;42.62;99657.52;1724292;81;21427;-57
2022/09/19 07:11:04;;;;;;;1.70;0.95;;;;;;;24.57;42.25;99663.30;1703684;84;21009;-57
2022/09/19 07:13:34;;;;;;;1.67;0.70;;;;;;;24.73;42.94;99666.75;1724388;83;21094;-57
2022/09/19 07:16:03;;;;;;;1.32;0.55;;;;;;;25.18;42.30;99662.30;1704031;84;21134;-57
2022/09/19 07:18:36;;;;;;;2.27;0.50;;;;;;;25.60;40.18;99667.91;1724737;83;20919;-57
2022/09/19 07:21:17;;;;;;;1.20;0.70;;;;;;;25.82;39.46;99661.90;1700237;83;21077;-58
2022/09/19 07:23:47;;;;;;;1.00;0.60;;;;;;;26.01;39.00;99669.78;1724875;83;21520;-57
2022/09/19 07:26:33;;;;;;;2.77;0.88;;;;;;;26.01;37.53;99670.33;1725067;83;20923;-64
2022/09/19 07:29:01;;;;;;;0.88;0.60;;;;;;;25.80;38.18;99678.78;1704034;84;22299;-57
2022/09/19 07:31:28;;;;;;;1.10;0.60;;;;;;;25.79;38.52;99681.17;1724922;83;21431;-57
2022/09/19 07:33:56;;;;;;;0.98;0.70;;;;;;;25.86;37.71;99674.89;1704300;84;20993;-57
2022/09/19 07:36:26;;;;;;;1.05;0.62;;;;;;;25.79;37.85;99682.52;1723847;81;20939;-58
2022/09/19 07:38:53;;;;;;;1.92;0.95;;;;;;;25.66;37.89;99673.95;1703629;84;21802;-66
2022/09/19 07:41:28;;;;;;;1.60;1.12;;;;;;;25.50;37.57;99686.81;1723718;83;21205;-56
2022/09/19 07:44:14;;;;;;;2.65;1.60;;;;;;;25.21;37.65;99681.73;1724524;83;21021;-58
2022/09/19 07:49:37;;;;;;;2.42;1.40;;;;;;;24.86;39.13;99696.43;1721604;81;20994;-60
2022/09/19 07:52:12;;;;;;;0.80;0.65;;;;;;;24.84;39.00;99687.38;1701154;84;21859;-57
2022/09/19 07:54:40;;;;;;;1.45;0.85;;;;;;;24.78;38.80;99690.44;1698284;83;21751;-56
2022/09/19 07:57:08;;;;;;;3.75;2.40;;;;;;;24.78;39.48;99687.23;1724854;83;21460;-56
2022/09/19 07:59:36;;;;;;;3.10;0.90;;;;;;;24.76;38.99;99698.70;1703473;84;21603;-57
2022/09/19 08:02:04;;;;;;;1.12;0.72;;;;;;;24.58;39.20;99704.30;1724530;83;21068;-56
2022/09/19 08:04:38;;;;;;;1.00;0.65;;;;;;;24.43;39.73;99705.85;1658009;84;21010;-57
2022/09/19 08:07:05;;;;;;;1.45;0.70;;;;;;;24.29;40.12;99701.77;1724655;83;21159;-57
2022/09/19 08:09:33;;;;;;;1.12;0.72;;;;;;;24.39;40.85;99708.84;1696918;84;21121;-63
2022/09/19 08:12:11;;;;;;;1.10;0.60;;;;;;;24.73;40.67;99696.61;1697117;84;22105;-56
2022/09/19 08:14:42;;;;;;;1.10;0.78;;;;;;;25.07;39.68;99691.54;1696141;84;21015;-56
2022/09/19 08:17:09;;;;;;;2.12;0.80;;;;;;;25.28;39.31;99699.48;1696932;84;21072;-57
2022/09/19 08:19:37;;;;;;;1.00;0.80;;;;;;;25.50;38.96;99692.69;1695865;84;21658;-57
2022/09/19 08:22:05;;;;;;;1.82;0.70;;;;;;;25.48;38.35;99688.97;1696768;84;21082;-56
2022/09/19 08:24:35;;;;;;;2.53;0.93;;;;;;;25.30;38.61;99703.95;1696682;84;21026;-56
2022/09/19 08:27:04;;;;;;;1.12;0.65;;;;;;;25.19;39.08;99702.55;1692519;84;20979;-61
2022/09/19 08:29:32;;;;;;;1.42;1.00;;;;;;;25.18;39.05;99704.44;1696084;84;21139;-58
2022/09/19 08:32:06;;;;;;;1.95;1.10;;;;;;;25.32;39.43;99705.80;1695551;84;21507;-56
2022/09/19 08:34:33;;;;;;;2.15;0.93;;;;;;;25.51;38.91;99704.94;1696940;84;21101;-57
2022/09/19 08:37:00;;;;;;;1.12;0.70;;;;;;;25.69;39.01;99700.05;1695991;84;20955;-58
2022/09/19 08:39:29;;;;;;;2.40;1.27;;;;;;;25.89;38.03;99703.67;1696498;84;21077;-57
2022/09/19 08:42:21;;;;;;;2.50;1.02;;;;;;;25.84;38.02;99704.34;1696447;84;21030;-56
2022/09/19 08:45:17;;;;;;;1.90;0.90;;;;;;;25.76;37.26;99716.99;1686481;84;21164;-56
2022/09/19 08:47:44;;;;;;;1.15;0.70;;;;;;;25.62;37.74;99717.80;1680784;85;21062;-57
2022/09/19 08:50:17;;;;;;;1.77;0.80;;;;;;;25.61;38.21;99714.07;1670694;84;20989;-58
2022/09/19 08:52:49;;;;;;;2.00;1.22;;;;;;;25.60;38.07;99709.28;1680637;85;21035;-66
2022/09/19 08:55:24;;;;;;;1.57;0.70;;;;;;;25.52;38.04;99716.64;1698164;83;22398;-58
2022/09/19 08:58:02;;;;;;;1.37;0.67;;;;;;;25.41;38.47;99696.02;1680253;85;21242;-62
2022/09/19 09:00:41;;;;;;;3.07;1.10;;;;;;;25.43;38.20;99703.75;1697979;84;21006;-65
2022/09/19 09:03:17;;;;;;;1.00;0.60;;;;;;;25.27;37.72;99700.56;1655343;85;21134;-57
2022/09/19 09:06:15;;;;;;;3.37;0.80;;;;;;;25.12;38.62;99711.50;1698641;83;21435;-57
2022/09/19 09:08:59;;;;;;;1.00;0.60;;;;;;;25.03;38.79;99717.21;1680029;85;21015;-56
2022/09/19 09:11:49;;;;;;;3.40;0.77;;;;;;;25.04;39.55;99716.94;1696041;84;21560;-58
2022/09/19 09:14:47;;;;;;;1.63;0.80;;;;;;;25.16;39.26;99710.62;1679036;85;21126;-58
2022/09/19 09:17:38;;;;;;;1.50;0.70;;;;;;;25.29;38.84;99723.72;1695543;84;21555;-58
2022/09/19 09:20:28;;;;;;;1.50;0.80;;;;;;;25.24;39.28;99717.16;1703873;84;20996;-57
2022/09/19 09:23:22;;;;;;;1.50;0.63;;;;;;;25.31;39.51;99720.23;1635836;86;21085;-57
2022/09/19 09:25:51;;;;;;;2.47;0.90;;;;;;;25.41;38.86;99721.91;1703060;82;21289;-56
2022/09/19 09:28:39;;;;;;;2.97;1.47;;;;;;;25.22;38.34;99711.31;1635341;86;21572;-57
2022/09/19 09:31:25;;;;;;;1.30;0.70;;;;;;;25.06;38.47;99716.63;1668398;84;22447;-57
2022/09/19 09:34:00;;;;;;;1.90;0.97;;;;;;;24.88;39.93;99731.03;1677791;85;21007;-58
2022/09/19 09:36:32;;;;;;;1.27;0.70;;;;;;;25.06;40.40;99731.30;1677729;83;21069;-58
2022/09/19 09:39:13;;;;;;;2.03;0.90;;;;;;;25.19;39.63;99727.89;1678673;85;21318;-55
2022/09/19 09:41:57;;;;;;;1.67;1.10;;;;;;;25.35;38.07;99740.45;1696509;82;20997;-56
2022/09/19 09:44:34;;;;;;;2.60;0.70;;;;;;;25.34;37.90;99739.63;1678016;85;20892;-57
2022/09/19 09:47:24;;;;;;;1.53;0.80;;;;;;;25.44;37.96;99731.45;1695968;83;21002;-65
2022/09/19 09:49:55;;;;;;;1.17;0.70;;;;;;;25.46;36.47;99715.95;1674168;84;21511;-57
2022/09/19 09:52:28;;;;;;;2.80;0.70;;;;;;;25.19;35.38;99730.56;1678241;85;21522;-56
2022/09/19 09:58:29;;;;;;;2.67;0.60;;;;;;;24.54;35.74;99749.92;1677871;84;21078;-64
2022/09/19 10:04:23;;;;;;;2.37;0.80;;;;;;;24.38;36.95;99738.66;1639298;87;21128;-57
2022/09/19 10:07:24;;;;;;;3.23;1.00;;;;;;;24.47;36.85;99742.83;1688984;83;21903;-66
2022/09/19 10:09:57;;;;;;;4.57;1.00;;;;;;;24.54;36.52;99743.27;1691973;84;21499;-65
2022/09/19 10:12:44;;;;;;;2.30;0.70;;;;;;;24.50;35.95;99748.38;1724927;81;20993;-56
2022/09/19 10:15:18;;;;;;;1.50;0.70;;;;;;;24.42;36.51;99761.01;1703952;84;20966;-56
2022/09/19 10:18:07;;;;;;;2.40;0.70;;;;;;;24.51;36.15;99747.86;1723789;81;21076;-58
2022/09/19 10:20:40;;;;;;;1.40;0.80;;;;;;;24.51;35.93;99752.64;1677971;84;22351;-59
2022/09/19 10:23:13;;;;;;;1.73;0.70;;;;;;;24.51;35.83;99746.53;1721137;81;20962;-60
2022/09/19 10:25:40;;;;;;;2.03;0.50;;;;;;;24.37;35.94;99751.73;1704133;84;21574;-56
2022/09/19 10:28:37;;;;;;;1.13;0.73;;;;;;;24.33;36.24;99769.38;1723983;81;21010;-56
2022/09/19 10:31:35;;;;;;;1.83;0.60;;;;;;;24.27;36.00;99757.97;1723662;83;21304;-64
2022/09/19 10:34:09;;;;;;;1.53;0.70;;;;;;;24.09;36.50;99761.93;1698958;84;21816;-56
2022/09/19 10:36:47;;;;;;;3.00;0.73;;;;;;;24.14;36.49;99769.88;1723033;82;20966;-55
2022/09/19 10:39:15;;;;;;;1.23;0.60;;;;;;;24.16;35.54;99761.05;1703537;84;20981;-57
2022/09/19 10:41:43;;;;;;;1.40;0.70;;;;;;;24.10;35.75;99761.66;1724508;83;20935;-57
2022/09/19 10:44:22;;;;;;;2.30;0.90;;;;;;;24.10;35.30;99766.20;1724783;83;21825;-67
2022/09/19 10:46:56;;;;;;;1.57;0.87;;;;;;;24.09;35.87;99764.59;1703652;84;23005;-67
2022/09/19 10:49:47;;;;;;;1.73;1.13;;;;;;;24.02;35.20;99772.41;1724924;83;20986;-58
2022/09/19 10:52:22;;;;;;;2.43;0.63;;;;;;;23.85;35.88;99780.04;1703642;82;21049;-67
2022/09/19 10:54:51;;;;;;;2.00;1.00;;;;;;;23.69;35.42;99779.95;1724733;83;21124;-57
2022/09/19 10:57:44;;;;;;;1.67;0.80;;;;;;;23.52;35.80;99787.80;1725266;81;21476;-58
2022/09/19 11:01:41;;;;;;;1.33;0.80;;;;;;;23.38;36.82;99790.84;1794178;79;26848;-58
2022/09/19 11:04:22;;;;;;;2.17;0.90;;;;;;;23.54;36.12;99800.80;1754402;80;21462;-62
2022/09/19 11:07:17;;;;;;;1.82;0.70;;;;;;;23.67;36.18;99796.72;1753764;81;21280;-57
2022/09/19 11:09:46;;;;;;;1.73;1.07;;;;;;;23.73;36.44;99799.59;1754927;81;20983;-59
2022/09/19 11:12:16;;;;;;;2.23;0.80;;;;;;;23.84;36.14;99801.08;1753840;81;20951;-59
2022/09/19 11:14:48;;;;;;;2.90;0.97;;;;;;;23.90;35.62;99810.59;1754921;81;20955;-58
2022/09/19 11:17:47;;;;;;;1.57;0.70;;;;;;;23.84;36.36;99799.75;1754408;81;20932;-57
2022/09/19 11:20:51;;;;;;;2.80;0.97;;;;;;;23.81;35.91;99802.97;1753393;81;21723;-56
2022/09/19 11:23:40;;;;;;;1.73;0.80;;;;;;;23.73;35.60;99797.72;1740424;82;21585;-57
2022/09/19 11:28:03;;;;;;;4.60;0.70;;;;;;;23.55;35.78;99808.50;1849114;77;26487;-57
2022/09/19 11:30:33;;;;;;;0.90;0.50;;;;;;;23.45;36.46;99805.13;1785424;79;20888;-67
2022/09/19 11:33:53;;;;;;;1.17;0.63;;;;;;;23.46;36.75;99811.52;1754749;80;21812;-57
2022/09/19 11:36:42;;;;;;;1.57;0.90;;;;;;;23.50;37.05;99814.41;1746529;81;21038;-57
2022/09/19 11:39:39;;;;;;;1.30;0.40;;;;;;;23.52;35.75;99819.72;1785173;80;20931;-57
2022/09/19 11:42:24;;;;;;;0.90;0.50;;;;;;;23.53;36.52;99825.30;1752275;81;20983;-58
2022/09/19 11:45:18;;;;;;;1.57;0.50;;;;;;;23.61;36.50;99825.77;1784622;80;21041;-58
2022/09/19 11:48:05;;;;;;;2.53;0.80;;;;;;;23.79;36.25;99827.76;1752325;81;21159;-57
2022/09/19 11:51:41;;;;;;;2.03;0.60;;;;;;;23.96;35.67;99822.78;1794931;79;26353;-58
2022/09/19 11:54:27;;;;;;;;;;;;;;;24.00;35.81;99827.00;1757463;80;21002;-67
2022/09/19 11:57:19;;;;;;;0.60;0.40;;;;;;;23.94;35.10;99830.27;1719906;81;21243;-56
2022/09/19 12:00:10;;;;;;;1.77;0.60;;;;;;;23.82;34.72;99830.38;1754095;81;20845;-62
2022/09/19 12:03:10;;;;;;;0.97;0.50;;;;;;;23.62;35.19;99836.12;1721695;83;20987;-55
2022/09/19 12:06:13;;;;;;;1.83;0.70;;;;;;;23.49;36.02;99826.13;1721465;83;21389;-56
2022/09/19 12:08:58;;;;;;;0.95;0.50;;;;;;;23.58;36.56;99838.29;1711748;83;21003;-66
2022/09/19 12:11:56;;;;;;;0.80;0.53;;;;;;;23.63;35.54;99836.91;1720583;83;22599;-56
2022/09/19 12:14:39;;;;;;;1.63;0.70;;;;;;;23.53;34.91;99835.93;1714662;83;20990;-57
2022/09/19 12:17:16;;;;;;;1.13;0.57;;;;;;;23.43;35.77;99831.23;1720832;83;21441;-57
2022/09/19 12:19:47;;;;;;;1.63;0.40;;;;;;;23.32;34.75;99831.84;1691967;83;21548;-66
2022/09/19 12:22:23;;;;;;;2.35;0.50;;;;;;;23.16;34.42;99839.67;1721320;83;21502;-57
2022/09/19 12:25:01;;;;;;;1.10;0.60;;;;;;;23.03;35.23;99840.56;1721208;83;21160;-57
2022/09/19 12:27:43;;;;;;;1.87;0.40;;;;;;;23.02;36.01;99842.94;1719488;83;21309;-66
2022/09/19 12:30:14;;;;;;;0.60;0.30;;;;;;;23.01;35.22;99833.37;1721206;83;20986;-57
2022/09/19 12:32:56;;;;;;;1.17;0.40;;;;;;;22.99;35.70;99851.99;1721364;83;21063;-57